sensor_id;sensor_type;location;lat;lon;timestamp;P1;durP1;ratioP1;P2;durP2;ratioP2
13941;SDS011;7043;51.630;7.254;2023-06-14T00:00:58;6.60;;;5.30;;
13941;SDS011;7043;51.630;7.254;2023-06-14T00:03:24;5.82;;;5.20;;
13941;SDS011;7043;51.630;7.254;2023-06-14T00:05:50;6.53;;;5.28;;
13941;SDS011;7043;51.630;7.254;2023-06-14T00:08:17;8.00;;;5.03;;
13941;SDS011;7043;51.630;7.254;2023-06-14T00:10:43;6.85;;;5.00;;
13941;SDS011;7043;51.630;7.254;2023-06-14T00:13:10;6.95;;;5.32;;
13941;SDS011;7043;51.630;7.254;2023-06-14T00:15:37;6.25;;;4.90;;
13941;SDS011;7043;51.630;7.254;2023-06-14T00:18:03;6.18;;;5.20;;
13941;SDS011;7043;51.630;7.254;2023-06-14T00:20:30;7.43;;;4.72;;
13941;SDS011;7043;51.630;7.254;2023-06-14T00:22:57;6.30;;;5.25;;
13941;SDS011;7043;51.630;7.254;2023-06-14T00:25:24;5.25;;;4.75;;
13941;SDS011;7043;51.630;7.254;2023-06-14T00:27:50;6.00;;;4.60;;
13941;SDS011;7043;51.630;7.254;2023-06-14T00:30:16;7.30;;;4.80;;
13941;SDS011;7043;51.630;7.254;2023-06-14T00:32:43;5.73;;;4.60;;
13941;SDS011;7043;51.630;7.254;2023-06-14T00:35:09;5.37;;;4.73;;
13941;SDS011;7043;51.630;7.254;2023-06-14T00:37:35;5.75;;;4.82;;
13941;SDS011;7043;51.630;7.254;2023-06-14T00:40:01;8.75;;;5.32;;
13941;SDS011;7043;51.630;7.254;2023-06-14T00:42:29;5.78;;;4.78;;
13941;SDS011;7043;51.630;7.254;2023-06-14T00:44:55;5.00;;;4.40;;
13941;SDS011;7043;51.630;7.254;2023-06-14T00:47:21;5.37;;;4.87;;
13941;SDS011;7043;51.630;7.254;2023-06-14T00:49:47;5.47;;;4.47;;
13941;SDS011;7043;51.630;7.254;2023-06-14T00:52:14;5.23;;;4.73;;
13941;SDS011;7043;51.630;7.254;2023-06-14T00:54:40;4.70;;;4.30;;
13941;SDS011;7043;51.630;7.254;2023-06-14T00:57:07;4.93;;;4.40;;
13941;SDS011;7043;51.630;7.254;2023-06-14T00:59:34;5.15;;;4.30;;
13941;SDS011;7043;51.630;7.254;2023-06-14T01:02:00;6.20;;;4.35;;
13941;SDS011;7043;51.630;7.254;2023-06-14T01:04:26;6.87;;;4.23;;
13941;SDS011;7043;51.630;7.254;2023-06-14T01:07:04;5.68;;;4.57;;
13941;SDS011;7043;51.630;7.254;2023-06-14T01:09:51;5.53;;;4.65;;
13941;SDS011;7043;51.630;7.254;2023-06-14T01:15:05;6.95;;;4.63;;
13941;SDS011;7043;51.630;7.254;2023-06-14T01:17:35;9.63;;;4.80;;
13941;SDS011;7043;51.630;7.254;2023-06-14T01:20:02;8.13;;;4.37;;
13941;SDS011;7043;51.630;7.254;2023-06-14T01:22:28;6.07;;;4.60;;
13941;SDS011;7043;51.630;7.254;2023-06-14T01:24:55;5.27;;;4.70;;
13941;SDS011;7043;51.630;7.254;2023-06-14T01:27:22;5.93;;;4.50;;
13941;SDS011;7043;51.630;7.254;2023-06-14T01:29:50;7.33;;;4.37;;
13941;SDS011;7043;51.630;7.254;2023-06-14T01:32:19;7.23;;;4.70;;
13941;SDS011;7043;51.630;7.254;2023-06-14T01:34:45;5.70;;;4.50;;
13941;SDS011;7043;51.630;7.254;2023-06-14T01:37:11;6.53;;;5.17;;
13941;SDS011;7043;51.630;7.254;2023-06-14T01:39:38;5.37;;;4.30;;
13941;SDS011;7043;51.630;7.254;2023-06-14T01:42:04;5.57;;;4.40;;
13941;SDS011;7043;51.630;7.254;2023-06-14T01:44:31;4.67;;;4.17;;
13941;SDS011;7043;51.630;7.254;2023-06-14T01:46:57;6.03;;;4.90;;
13941;SDS011;7043;51.630;7.254;2023-06-14T01:49:24;4.80;;;4.20;;
13941;SDS011;7043;51.630;7.254;2023-06-14T01:51:50;5.67;;;4.50;;
13941;SDS011;7043;51.630;7.254;2023-06-14T01:54:16;6.00;;;4.40;;
13941;SDS011;7043;51.630;7.254;2023-06-14T01:56:42;6.57;;;4.30;;
13941;SDS011;7043;51.630;7.254;2023-06-14T01:59:08;5.63;;;4.60;;
13941;SDS011;7043;51.630;7.254;2023-06-14T02:01:34;5.97;;;4.53;;
13941;SDS011;7043;51.630;7.254;2023-06-14T02:03:59;6.07;;;4.20;;
13941;SDS011;7043;51.630;7.254;2023-06-14T02:06:26;7.10;;;4.47;;
13941;SDS011;7043;51.630;7.254;2023-06-14T02:08:53;4.87;;;4.13;;
13941;SDS011;7043;51.630;7.254;2023-06-14T02:11:19;5.60;;;4.00;;
13941;SDS011;7043;51.630;7.254;2023-06-14T02:13:45;6.97;;;4.50;;
13941;SDS011;7043;51.630;7.254;2023-06-14T02:16:11;6.57;;;4.30;;
13941;SDS011;7043;51.630;7.254;2023-06-14T02:18:40;5.60;;;4.30;;
13941;SDS011;7043;51.630;7.254;2023-06-14T02:21:09;6.07;;;4.13;;
13941;SDS011;7043;51.630;7.254;2023-06-14T02:23:35;6.40;;;4.07;;
13941;SDS011;7043;51.630;7.254;2023-06-14T02:26:01;6.23;;;4.03;;
13941;SDS011;7043;51.630;7.254;2023-06-14T02:28:27;8.07;;;4.03;;
13941;SDS011;7043;51.630;7.254;2023-06-14T02:30:53;7.27;;;4.20;;
13941;SDS011;7043;51.630;7.254;2023-06-14T02:33:19;5.00;;;4.17;;
13941;SDS011;7043;51.630;7.254;2023-06-14T02:35:46;4.30;;;3.83;;
13941;SDS011;7043;51.630;7.254;2023-06-14T02:38:12;4.50;;;4.07;;
13941;SDS011;7043;51.630;7.254;2023-06-14T02:40:39;6.30;;;3.60;;
13941;SDS011;7043;51.630;7.254;2023-06-14T02:43:07;4.40;;;3.60;;
13941;SDS011;7043;51.630;7.254;2023-06-14T02:45:33;4.80;;;3.90;;
13941;SDS011;7043;51.630;7.254;2023-06-14T02:47:59;5.00;;;4.10;;
13941;SDS011;7043;51.630;7.254;2023-06-14T02:50:25;5.83;;;3.87;;
13941;SDS011;7043;51.630;7.254;2023-06-14T02:52:53;7.40;;;3.87;;
13941;SDS011;7043;51.630;7.254;2023-06-14T02:55:20;5.53;;;3.93;;
13941;SDS011;7043;51.630;7.254;2023-06-14T02:57:46;5.17;;;3.73;;
13941;SDS011;7043;51.630;7.254;2023-06-14T03:00:13;4.33;;;3.93;;
13941;SDS011;7043;51.630;7.254;2023-06-14T03:02:39;5.00;;;3.93;;
13941;SDS011;7043;51.630;7.254;2023-06-14T03:05:07;5.40;;;3.93;;
13941;SDS011;7043;51.630;7.254;2023-06-14T03:07:34;5.07;;;4.03;;
13941;SDS011;7043;51.630;7.254;2023-06-14T03:10:05;6.53;;;3.90;;
13941;SDS011;7043;51.630;7.254;2023-06-14T03:12:32;4.70;;;3.90;;
13941;SDS011;7043;51.630;7.254;2023-06-14T03:14:58;4.60;;;3.87;;
13941;SDS011;7043;51.630;7.254;2023-06-14T03:17:29;5.73;;;4.17;;
13941;SDS011;7043;51.630;7.254;2023-06-14T03:19:58;6.33;;;3.80;;
13941;SDS011;7043;51.630;7.254;2023-06-14T03:22:24;6.23;;;3.97;;
13941;SDS011;7043;51.630;7.254;2023-06-14T03:24:50;6.93;;;3.77;;
13941;SDS011;7043;51.630;7.254;2023-06-14T03:27:17;6.30;;;3.43;;
13941;SDS011;7043;51.630;7.254;2023-06-14T03:29:43;5.87;;;3.67;;
13941;SDS011;7043;51.630;7.254;2023-06-14T03:32:09;4.33;;;3.93;;
13941;SDS011;7043;51.630;7.254;2023-06-14T03:34:35;4.40;;;3.67;;
13941;SDS011;7043;51.630;7.254;2023-06-14T03:37:04;4.87;;;3.60;;
13941;SDS011;7043;51.630;7.254;2023-06-14T03:39:30;5.77;;;3.90;;
13941;SDS011;7043;51.630;7.254;2023-06-14T03:41:56;9.90;;;4.20;;
13941;SDS011;7043;51.630;7.254;2023-06-14T03:44:22;6.17;;;3.63;;
13941;SDS011;7043;51.630;7.254;2023-06-14T03:46:48;5.33;;;3.60;;
13941;SDS011;7043;51.630;7.254;2023-06-14T03:49:15;6.47;;;4.20;;
13941;SDS011;7043;51.630;7.254;2023-06-14T03:51:42;4.80;;;4.10;;
13941;SDS011;7043;51.630;7.254;2023-06-14T03:54:08;4.67;;;3.67;;
13941;SDS011;7043;51.630;7.254;2023-06-14T03:56:34;5.00;;;3.80;;
13941;SDS011;7043;51.630;7.254;2023-06-14T03:59:00;4.80;;;3.57;;
13941;SDS011;7043;51.630;7.254;2023-06-14T04:01:27;4.30;;;3.77;;
13941;SDS011;7043;51.630;7.254;2023-06-14T04:03:54;6.43;;;3.90;;
13941;SDS011;7043;51.630;7.254;2023-06-14T04:06:20;5.20;;;3.83;;
13941;SDS011;7043;51.630;7.254;2023-06-14T04:08:47;7.23;;;4.20;;
13941;SDS011;7043;51.630;7.254;2023-06-14T04:11:14;5.07;;;3.47;;
13941;SDS011;7043;51.630;7.254;2023-06-14T04:13:40;4.63;;;3.60;;
13941;SDS011;7043;51.630;7.254;2023-06-14T04:16:06;5.87;;;3.50;;
13941;SDS011;7043;51.630;7.254;2023-06-14T04:18:32;5.57;;;3.33;;
13941;SDS011;7043;51.630;7.254;2023-06-14T04:20:58;4.80;;;3.70;;
13941;SDS011;7043;51.630;7.254;2023-06-14T04:23:25;4.47;;;3.63;;
13941;SDS011;7043;51.630;7.254;2023-06-14T04:25:53;6.83;;;3.80;;
13941;SDS011;7043;51.630;7.254;2023-06-14T04:28:19;3.43;;;3.13;;
13941;SDS011;7043;51.630;7.254;2023-06-14T04:30:45;6.80;;;3.40;;
13941;SDS011;7043;51.630;7.254;2023-06-14T04:33:12;5.47;;;3.80;;
13941;SDS011;7043;51.630;7.254;2023-06-14T04:35:38;4.67;;;3.13;;
13941;SDS011;7043;51.630;7.254;2023-06-14T04:38:05;3.75;;;3.25;;
13941;SDS011;7043;51.630;7.254;2023-06-14T04:40:35;7.27;;;3.83;;
13941;SDS011;7043;51.630;7.254;2023-06-14T04:43:10;5.00;;;3.50;;
13941;SDS011;7043;51.630;7.254;2023-06-14T04:45:42;3.63;;;3.23;;
13941;SDS011;7043;51.630;7.254;2023-06-14T04:48:11;5.83;;;3.70;;
13941;SDS011;7043;51.630;7.254;2023-06-14T04:50:37;6.10;;;3.50;;
13941;SDS011;7043;51.630;7.254;2023-06-14T04:53:06;4.73;;;3.37;;
13941;SDS011;7043;51.630;7.254;2023-06-14T04:55:32;3.75;;;3.45;;
13941;SDS011;7043;51.630;7.254;2023-06-14T04:57:57;4.00;;;3.27;;
13941;SDS011;7043;51.630;7.254;2023-06-14T05:00:24;5.45;;;3.60;;
13941;SDS011;7043;51.630;7.254;2023-06-14T05:02:50;4.85;;;3.30;;
13941;SDS011;7043;51.630;7.254;2023-06-14T05:05:18;4.72;;;3.47;;
13941;SDS011;7043;51.630;7.254;2023-06-14T05:07:44;4.28;;;3.28;;
13941;SDS011;7043;51.630;7.254;2023-06-14T05:10:11;5.13;;;3.55;;
13941;SDS011;7043;51.630;7.254;2023-06-14T05:12:37;7.90;;;3.97;;
13941;SDS011;7043;51.630;7.254;2023-06-14T05:15:03;5.40;;;3.45;;
13941;SDS011;7043;51.630;7.254;2023-06-14T05:17:29;3.92;;;3.53;;
13941;SDS011;7043;51.630;7.254;2023-06-14T05:19:55;5.10;;;3.17;;
13941;SDS011;7043;51.630;7.254;2023-06-14T05:22:21;5.22;;;3.08;;
13941;SDS011;7043;51.630;7.254;2023-06-14T05:24:48;4.10;;;3.20;;
13941;SDS011;7043;51.630;7.254;2023-06-14T05:27:14;3.83;;;3.13;;
13941;SDS011;7043;51.630;7.254;2023-06-14T05:29:39;4.28;;;3.40;;
13941;SDS011;7043;51.630;7.254;2023-06-14T05:32:06;5.25;;;3.33;;
13941;SDS011;7043;51.630;7.254;2023-06-14T05:34:32;5.85;;;3.55;;
13941;SDS011;7043;51.630;7.254;2023-06-14T05:36:58;4.97;;;3.78;;
13941;SDS011;7043;51.630;7.254;2023-06-14T05:39:23;4.57;;;3.20;;
13941;SDS011;7043;51.630;7.254;2023-06-14T05:41:49;7.55;;;3.33;;
13941;SDS011;7043;51.630;7.254;2023-06-14T05:44:15;5.95;;;3.35;;
13941;SDS011;7043;51.630;7.254;2023-06-14T05:46:41;4.63;;;3.17;;
13941;SDS011;7043;51.630;7.254;2023-06-14T05:49:07;5.53;;;3.35;;
13941;SDS011;7043;51.630;7.254;2023-06-14T05:51:34;5.80;;;3.45;;
13941;SDS011;7043;51.630;7.254;2023-06-14T05:54:00;6.47;;;3.17;;
13941;SDS011;7043;51.630;7.254;2023-06-14T05:56:27;4.03;;;2.97;;
13941;SDS011;7043;51.630;7.254;2023-06-14T05:58:53;6.75;;;3.28;;
13941;SDS011;7043;51.630;7.254;2023-06-14T06:01:19;3.60;;;2.97;;
13941;SDS011;7043;51.630;7.254;2023-06-14T06:03:45;4.20;;;2.97;;
13941;SDS011;7043;51.630;7.254;2023-06-14T06:06:11;6.65;;;3.22;;
13941;SDS011;7043;51.630;7.254;2023-06-14T06:08:38;4.25;;;2.83;;
13941;SDS011;7043;51.630;7.254;2023-06-14T06:11:04;3.17;;;2.83;;
13941;SDS011;7043;51.630;7.254;2023-06-14T06:13:30;4.88;;;3.28;;
13941;SDS011;7043;51.630;7.254;2023-06-14T06:15:56;5.20;;;3.22;;
13941;SDS011;7043;51.630;7.254;2023-06-14T06:18:22;5.20;;;3.15;;
13941;SDS011;7043;51.630;7.254;2023-06-14T06:20:48;4.25;;;3.20;;
13941;SDS011;7043;51.630;7.254;2023-06-14T06:23:14;5.20;;;3.33;;
13941;SDS011;7043;51.630;7.254;2023-06-14T06:25:40;4.80;;;3.25;;
13941;SDS011;7043;51.630;7.254;2023-06-14T06:28:07;5.20;;;3.20;;
13941;SDS011;7043;51.630;7.254;2023-06-14T06:30:32;4.40;;;3.20;;
13941;SDS011;7043;51.630;7.254;2023-06-14T06:32:58;4.93;;;2.97;;
13941;SDS011;7043;51.630;7.254;2023-06-14T06:35:24;4.93;;;3.10;;
13941;SDS011;7043;51.630;7.254;2023-06-14T06:37:50;4.18;;;3.22;;
13941;SDS011;7043;51.630;7.254;2023-06-14T06:40:17;6.00;;;2.97;;
13941;SDS011;7043;51.630;7.254;2023-06-14T06:42:43;3.28;;;2.97;;
13941;SDS011;7043;51.630;7.254;2023-06-14T06:45:09;3.67;;;2.85;;
13941;SDS011;7043;51.630;7.254;2023-06-14T06:47:35;4.72;;;2.90;;
13941;SDS011;7043;51.630;7.254;2023-06-14T06:50:01;6.03;;;2.83;;
13941;SDS011;7043;51.630;7.254;2023-06-14T06:52:27;6.20;;;3.03;;
13941;SDS011;7043;51.630;7.254;2023-06-14T06:54:54;4.00;;;2.60;;
13941;SDS011;7043;51.630;7.254;2023-06-14T06:57:21;4.68;;;2.60;;
13941;SDS011;7043;51.630;7.254;2023-06-14T06:59:50;6.25;;;3.03;;
13941;SDS011;7043;51.630;7.254;2023-06-14T07:02:16;6.43;;;3.28;;
13941;SDS011;7043;51.630;7.254;2023-06-14T07:04:42;5.88;;;4.00;;
13941;SDS011;7043;51.630;7.254;2023-06-14T07:07:08;6.40;;;3.85;;
13941;SDS011;7043;51.630;7.254;2023-06-14T07:09:37;4.47;;;3.42;;
13941;SDS011;7043;51.630;7.254;2023-06-14T07:12:03;4.22;;;3.83;;
13941;SDS011;7043;51.630;7.254;2023-06-14T07:14:29;4.20;;;2.90;;
13941;SDS011;7043;51.630;7.254;2023-06-14T07:16:55;4.70;;;3.08;;
13941;SDS011;7043;51.630;7.254;2023-06-14T07:19:21;3.65;;;2.60;;
13941;SDS011;7043;51.630;7.254;2023-06-14T07:21:47;4.05;;;2.80;;
13941;SDS011;7043;51.630;7.254;2023-06-14T07:24:13;4.32;;;2.65;;
13941;SDS011;7043;51.630;7.254;2023-06-14T07:26:40;3.97;;;3.00;;
13941;SDS011;7043;51.630;7.254;2023-06-14T07:29:06;4.82;;;2.70;;
13941;SDS011;7043;51.630;7.254;2023-06-14T07:31:32;5.97;;;2.63;;
13941;SDS011;7043;51.630;7.254;2023-06-14T07:33:58;5.95;;;2.65;;
13941;SDS011;7043;51.630;7.254;2023-06-14T07:36:24;5.72;;;2.75;;
13941;SDS011;7043;51.630;7.254;2023-06-14T07:38:50;8.70;;;3.03;;
13941;SDS011;7043;51.630;7.254;2023-06-14T07:41:16;5.90;;;2.85;;
13941;SDS011;7043;51.630;7.254;2023-06-14T07:43:42;10.02;;;3.33;;
13941;SDS011;7043;51.630;7.254;2023-06-14T07:46:08;4.82;;;2.83;;
13941;SDS011;7043;51.630;7.254;2023-06-14T07:48:34;3.30;;;2.33;;
13941;SDS011;7043;51.630;7.254;2023-06-14T07:51:00;2.78;;;2.42;;
13941;SDS011;7043;51.630;7.254;2023-06-14T07:53:27;4.70;;;2.92;;
13941;SDS011;7043;51.630;7.254;2023-06-14T07:55:53;3.63;;;2.53;;
13941;SDS011;7043;51.630;7.254;2023-06-14T07:58:18;3.67;;;2.53;;
13941;SDS011;7043;51.630;7.254;2023-06-14T08:00:44;3.85;;;2.47;;
13941;SDS011;7043;51.630;7.254;2023-06-14T08:03:12;2.75;;;2.10;;
13941;SDS011;7043;51.630;7.254;2023-06-14T08:05:38;3.03;;;2.30;;
13941;SDS011;7043;51.630;7.254;2023-06-14T08:08:04;2.72;;;2.38;;
13941;SDS011;7043;51.630;7.254;2023-06-14T08:10:30;4.57;;;2.30;;
13941;SDS011;7043;51.630;7.254;2023-06-14T08:12:56;5.35;;;1.83;;
13941;SDS011;7043;51.630;7.254;2023-06-14T08:15:22;2.38;;;1.70;;
13941;SDS011;7043;51.630;7.254;2023-06-14T08:17:48;4.30;;;1.98;;
13941;SDS011;7043;51.630;7.254;2023-06-14T08:20:14;4.80;;;2.00;;
13941;SDS011;7043;51.630;7.254;2023-06-14T08:22:41;3.63;;;1.98;;
13941;SDS011;7043;51.630;7.254;2023-06-14T08:25:08;4.97;;;1.90;;
13941;SDS011;7043;51.630;7.254;2023-06-14T08:27:34;2.90;;;1.67;;
13941;SDS011;7043;51.630;7.254;2023-06-14T08:30:00;4.28;;;1.90;;
13941;SDS011;7043;51.630;7.254;2023-06-14T08:32:27;2.38;;;1.50;;
13941;SDS011;7043;51.630;7.254;2023-06-14T08:34:53;2.95;;;1.60;;
13941;SDS011;7043;51.630;7.254;2023-06-14T08:37:19;2.30;;;1.70;;
13941;SDS011;7043;51.630;7.254;2023-06-14T08:39:45;1.95;;;1.55;;
13941;SDS011;7043;51.630;7.254;2023-06-14T08:42:11;2.15;;;1.58;;
13941;SDS011;7043;51.630;7.254;2023-06-14T08:44:38;2.08;;;1.45;;
13941;SDS011;7043;51.630;7.254;2023-06-14T08:47:04;4.93;;;1.60;;
13941;SDS011;7043;51.630;7.254;2023-06-14T08:49:31;5.15;;;1.50;;
13941;SDS011;7043;51.630;7.254;2023-06-14T08:51:59;3.53;;;1.48;;
13941;SDS011;7043;51.630;7.254;2023-06-14T08:54:25;1.73;;;1.30;;
13941;SDS011;7043;51.630;7.254;2023-06-14T08:56:54;2.25;;;1.15;;
13941;SDS011;7043;51.630;7.254;2023-06-14T08:59:23;2.45;;;1.30;;
13941;SDS011;7043;51.630;7.254;2023-06-14T09:01:50;1.40;;;1.17;;
13941;SDS011;7043;51.630;7.254;2023-06-14T09:04:17;3.92;;;1.38;;
13941;SDS011;7043;51.630;7.254;2023-06-14T09:06:45;5.82;;;1.60;;
13941;SDS011;7043;51.630;7.254;2023-06-14T09:09:11;2.15;;;1.10;;
13941;SDS011;7043;51.630;7.254;2023-06-14T09:11:41;3.35;;;1.50;;
13941;SDS011;7043;51.630;7.254;2023-06-14T09:14:08;5.07;;;1.63;;
13941;SDS011;7043;51.630;7.254;2023-06-14T09:16:34;2.55;;;1.23;;
13941;SDS011;7043;51.630;7.254;2023-06-14T09:19:00;4.32;;;1.02;;
13941;SDS011;7043;51.630;7.254;2023-06-14T09:21:27;2.45;;;1.30;;
13941;SDS011;7043;51.630;7.254;2023-06-14T09:23:53;5.47;;;1.10;;
13941;SDS011;7043;51.630;7.254;2023-06-14T09:26:20;2.88;;;1.10;;
13941;SDS011;7043;51.630;7.254;2023-06-14T09:28:48;1.67;;;1.00;;
13941;SDS011;7043;51.630;7.254;2023-06-14T09:31:16;1.33;;;0.90;;
13941;SDS011;7043;51.630;7.254;2023-06-14T09:33:42;2.47;;;1.48;;
13941;SDS011;7043;51.630;7.254;2023-06-14T09:36:14;2.65;;;1.17;;
13941;SDS011;7043;51.630;7.254;2023-06-14T09:38:41;2.47;;;1.02;;
13941;SDS011;7043;51.630;7.254;2023-06-14T09:41:07;1.77;;;0.90;;
13941;SDS011;7043;51.630;7.254;2023-06-14T09:43:33;2.13;;;1.13;;
13941;SDS011;7043;51.630;7.254;2023-06-14T09:46:00;2.13;;;0.80;;
13941;SDS011;7043;51.630;7.254;2023-06-14T09:48:27;3.20;;;1.08;;
13941;SDS011;7043;51.630;7.254;2023-06-14T09:50:53;2.85;;;0.90;;
13941;SDS011;7043;51.630;7.254;2023-06-14T09:53:21;2.17;;;0.90;;
13941;SDS011;7043;51.630;7.254;2023-06-14T09:55:48;2.22;;;0.98;;
13941;SDS011;7043;51.630;7.254;2023-06-14T09:58:15;2.95;;;1.00;;
13941;SDS011;7043;51.630;7.254;2023-06-14T10:00:42;1.65;;;1.00;;
13941;SDS011;7043;51.630;7.254;2023-06-14T10:03:11;2.17;;;1.30;;
13941;SDS011;7043;51.630;7.254;2023-06-14T10:05:37;2.42;;;0.98;;
13941;SDS011;7043;51.630;7.254;2023-06-14T10:08:07;3.15;;;1.40;;
13941;SDS011;7043;51.630;7.254;2023-06-14T10:10:34;1.70;;;1.40;;
13941;SDS011;7043;51.630;7.254;2023-06-14T10:13:00;2.20;;;1.40;;
13941;SDS011;7043;51.630;7.254;2023-06-14T10:15:33;3.40;;;1.40;;
13941;SDS011;7043;51.630;7.254;2023-06-14T10:18:10;1.85;;;1.33;;
13941;SDS011;7043;51.630;7.254;2023-06-14T10:20:49;2.42;;;1.30;;
13941;SDS011;7043;51.630;7.254;2023-06-14T10:23:21;2.75;;;1.40;;
13941;SDS011;7043;51.630;7.254;2023-06-14T10:25:56;1.95;;;1.30;;
13941;SDS011;7043;51.630;7.254;2023-06-14T10:28:24;1.52;;;1.30;;
13941;SDS011;7043;51.630;7.254;2023-06-14T10:31:10;3.30;;;1.40;;
13941;SDS011;7043;51.630;7.254;2023-06-14T10:33:39;1.77;;;1.30;;
13941;SDS011;7043;51.630;7.254;2023-06-14T10:36:09;5.00;;;1.73;;
13941;SDS011;7043;51.630;7.254;2023-06-14T10:38:36;1.77;;;1.05;;
13941;SDS011;7043;51.630;7.254;2023-06-14T10:41:03;2.58;;;1.50;;
13941;SDS011;7043;51.630;7.254;2023-06-14T10:43:29;3.90;;;1.60;;
13941;SDS011;7043;51.630;7.254;2023-06-14T10:46:12;1.90;;;1.35;;
13941;SDS011;7043;51.630;7.254;2023-06-14T10:48:41;2.00;;;1.50;;
13941;SDS011;7043;51.630;7.254;2023-06-14T10:51:17;2.38;;;1.33;;
13941;SDS011;7043;51.630;7.254;2023-06-14T10:53:46;3.13;;;1.40;;
13941;SDS011;7043;51.630;7.254;2023-06-14T10:56:29;1.65;;;1.48;;
13941;SDS011;7043;51.630;7.254;2023-06-14T10:58:58;2.95;;;1.40;;
13941;SDS011;7043;51.630;7.254;2023-06-14T11:03:57;3.67;;;1.60;;
13941;SDS011;7043;51.630;7.254;2023-06-14T11:06:27;2.28;;;1.50;;
13941;SDS011;7043;51.630;7.254;2023-06-14T11:09:03;2.65;;;1.60;;
13941;SDS011;7043;51.630;7.254;2023-06-14T11:11:35;2.80;;;1.35;;
13941;SDS011;7043;51.630;7.254;2023-06-14T11:14:02;3.58;;;1.58;;
13941;SDS011;7043;51.630;7.254;2023-06-14T11:16:28;1.40;;;1.23;;
13941;SDS011;7043;51.630;7.254;2023-06-14T11:18:57;2.25;;;1.40;;
13941;SDS011;7043;51.630;7.254;2023-06-14T11:21:23;3.10;;;1.58;;
13941;SDS011;7043;51.630;7.254;2023-06-14T11:23:50;2.05;;;1.50;;
13941;SDS011;7043;51.630;7.254;2023-06-14T11:26:28;2.75;;;1.60;;
13941;SDS011;7043;51.630;7.254;2023-06-14T11:28:55;3.03;;;1.42;;
13941;SDS011;7043;51.630;7.254;2023-06-14T11:31:21;2.67;;;1.35;;
13941;SDS011;7043;51.630;7.254;2023-06-14T11:33:50;2.22;;;1.30;;
13941;SDS011;7043;51.630;7.254;2023-06-14T11:36:16;1.65;;;1.42;;
13941;SDS011;7043;51.630;7.254;2023-06-14T11:38:43;3.13;;;1.67;;
13941;SDS011;7043;51.630;7.254;2023-06-14T11:41:09;2.03;;;1.17;;
13941;SDS011;7043;51.630;7.254;2023-06-14T11:43:37;3.13;;;1.40;;
13941;SDS011;7043;51.630;7.254;2023-06-14T11:46:12;5.22;;;1.67;;
13941;SDS011;7043;51.630;7.254;2023-06-14T11:48:40;4.20;;;1.75;;
13941;SDS011;7043;51.630;7.254;2023-06-14T11:51:06;2.22;;;1.55;;
13941;SDS011;7043;51.630;7.254;2023-06-14T11:53:32;5.45;;;1.70;;
13941;SDS011;7043;51.630;7.254;2023-06-14T11:55:58;1.85;;;1.70;;
13941;SDS011;7043;51.630;7.254;2023-06-14T11:58:25;2.70;;;1.58;;
13941;SDS011;7043;51.630;7.254;2023-06-14T12:00:52;7.13;;;1.80;;
13941;SDS011;7043;51.630;7.254;2023-06-14T12:03:23;4.07;;;2.13;;
13941;SDS011;7043;51.630;7.254;2023-06-14T12:06:04;2.65;;;2.10;;
13941;SDS011;7043;51.630;7.254;2023-06-14T12:08:35;2.83;;;1.75;;
13941;SDS011;7043;51.630;7.254;2023-06-14T12:11:14;3.83;;;2.08;;
13941;SDS011;7043;51.630;7.254;2023-06-14T12:13:42;3.58;;;1.85;;
13941;SDS011;7043;51.630;7.254;2023-06-14T12:16:08;2.67;;;1.80;;
13941;SDS011;7043;51.630;7.254;2023-06-14T12:18:39;3.72;;;2.00;;
13941;SDS011;7043;51.630;7.254;2023-06-14T12:21:06;3.53;;;2.00;;
13941;SDS011;7043;51.630;7.254;2023-06-14T12:23:39;2.53;;;1.83;;
13941;SDS011;7043;51.630;7.254;2023-06-14T12:26:05;4.13;;;1.90;;
13941;SDS011;7043;51.630;7.254;2023-06-14T12:28:31;3.33;;;2.17;;
13941;SDS011;7043;51.630;7.254;2023-06-14T12:30:57;3.22;;;1.70;;
13941;SDS011;7043;51.630;7.254;2023-06-14T12:33:24;4.25;;;2.20;;
13941;SDS011;7043;51.630;7.254;2023-06-14T12:35:50;3.58;;;2.40;;
13941;SDS011;7043;51.630;7.254;2023-06-14T12:38:17;3.80;;;1.90;;
13941;SDS011;7043;51.630;7.254;2023-06-14T12:40:43;3.03;;;2.30;;
13941;SDS011;7043;51.630;7.254;2023-06-14T12:43:09;3.67;;;1.90;;
13941;SDS011;7043;51.630;7.254;2023-06-14T12:45:35;3.53;;;2.08;;
13941;SDS011;7043;51.630;7.254;2023-06-14T12:48:01;3.08;;;2.20;;
13941;SDS011;7043;51.630;7.254;2023-06-14T12:50:27;5.15;;;2.30;;
13941;SDS011;7043;51.630;7.254;2023-06-14T12:52:53;3.03;;;2.25;;
13941;SDS011;7043;51.630;7.254;2023-06-14T12:55:19;2.63;;;2.33;;
13941;SDS011;7043;51.630;7.254;2023-06-14T12:57:45;3.03;;;2.22;;
13941;SDS011;7043;51.630;7.254;2023-06-14T13:00:14;2.53;;;2.30;;
13941;SDS011;7043;51.630;7.254;2023-06-14T13:02:40;2.25;;;2.05;;
13941;SDS011;7043;51.630;7.254;2023-06-14T13:05:06;2.47;;;2.28;;
13941;SDS011;7043;51.630;7.254;2023-06-14T13:07:32;2.60;;;2.38;;
13941;SDS011;7043;51.630;7.254;2023-06-14T13:09:58;2.35;;;2.10;;
13941;SDS011;7043;51.630;7.254;2023-06-14T13:12:24;3.10;;;2.30;;
13941;SDS011;7043;51.630;7.254;2023-06-14T13:14:50;4.00;;;2.30;;
13941;SDS011;7043;51.630;7.254;2023-06-14T13:17:16;4.53;;;2.38;;
13941;SDS011;7043;51.630;7.254;2023-06-14T13:19:42;3.83;;;2.20;;
13941;SDS011;7043;51.630;7.254;2023-06-14T13:22:08;3.28;;;2.22;;
13941;SDS011;7043;51.630;7.254;2023-06-14T13:24:34;3.50;;;2.25;;
13941;SDS011;7043;51.630;7.254;2023-06-14T13:27:00;2.53;;;1.92;;
13941;SDS011;7043;51.630;7.254;2023-06-14T13:29:26;2.80;;;2.20;;
13941;SDS011;7043;51.630;7.254;2023-06-14T13:31:53;2.75;;;2.13;;
13941;SDS011;7043;51.630;7.254;2023-06-14T13:34:20;3.03;;;2.03;;
13941;SDS011;7043;51.630;7.254;2023-06-14T13:36:46;3.63;;;2.40;;
13941;SDS011;7043;51.630;7.254;2023-06-14T13:39:12;3.17;;;2.30;;
13941;SDS011;7043;51.630;7.254;2023-06-14T13:41:38;2.80;;;2.20;;
13941;SDS011;7043;51.630;7.254;2023-06-14T13:44:04;2.33;;;2.13;;
13941;SDS011;7043;51.630;7.254;2023-06-14T13:46:30;3.15;;;2.42;;
13941;SDS011;7043;51.630;7.254;2023-06-14T13:48:56;3.35;;;2.30;;
13941;SDS011;7043;51.630;7.254;2023-06-14T13:51:26;2.30;;;2.10;;
13941;SDS011;7043;51.630;7.254;2023-06-14T13:53:53;3.60;;;2.30;;
13941;SDS011;7043;51.630;7.254;2023-06-14T13:56:20;2.65;;;2.42;;
13941;SDS011;7043;51.630;7.254;2023-06-14T13:58:47;5.63;;;3.00;;
13941;SDS011;7043;51.630;7.254;2023-06-14T14:01:13;5.43;;;2.40;;
13941;SDS011;7043;51.630;7.254;2023-06-14T14:03:40;2.83;;;2.20;;
13941;SDS011;7043;51.630;7.254;2023-06-14T14:06:06;3.97;;;2.50;;
13941;SDS011;7043;51.630;7.254;2023-06-14T14:08:32;2.63;;;2.42;;
13941;SDS011;7043;51.630;7.254;2023-06-14T14:10:58;3.08;;;2.42;;
13941;SDS011;7043;51.630;7.254;2023-06-14T14:13:24;2.85;;;2.10;;
13941;SDS011;7043;51.630;7.254;2023-06-14T14:15:50;2.50;;;2.30;;
13941;SDS011;7043;51.630;7.254;2023-06-14T14:18:17;2.85;;;2.25;;
13941;SDS011;7043;51.630;7.254;2023-06-14T14:20:43;3.72;;;2.72;;
13941;SDS011;7043;51.630;7.254;2023-06-14T14:23:09;4.15;;;2.40;;
13941;SDS011;7043;51.630;7.254;2023-06-14T14:25:35;3.70;;;2.33;;
13941;SDS011;7043;51.630;7.254;2023-06-14T14:28:01;3.15;;;2.50;;
13941;SDS011;7043;51.630;7.254;2023-06-14T14:30:28;3.13;;;2.40;;
13941;SDS011;7043;51.630;7.254;2023-06-14T14:32:54;3.80;;;2.47;;
13941;SDS011;7043;51.630;7.254;2023-06-14T14:35:20;2.50;;;2.30;;
13941;SDS011;7043;51.630;7.254;2023-06-14T14:37:48;3.58;;;2.58;;
13941;SDS011;7043;51.630;7.254;2023-06-14T14:40:14;3.15;;;2.30;;
13941;SDS011;7043;51.630;7.254;2023-06-14T14:42:40;4.13;;;2.28;;
13941;SDS011;7043;51.630;7.254;2023-06-14T14:45:06;5.05;;;2.42;;
13941;SDS011;7043;51.630;7.254;2023-06-14T14:47:33;4.80;;;2.75;;
13941;SDS011;7043;51.630;7.254;2023-06-14T14:49:58;2.38;;;2.17;;
13941;SDS011;7043;51.630;7.254;2023-06-14T14:52:24;3.88;;;2.40;;
13941;SDS011;7043;51.630;7.254;2023-06-14T14:54:51;3.35;;;2.38;;
13941;SDS011;7043;51.630;7.254;2023-06-14T14:57:18;3.20;;;2.33;;
13941;SDS011;7043;51.630;7.254;2023-06-14T14:59:44;3.10;;;2.70;;
13941;SDS011;7043;51.630;7.254;2023-06-14T15:02:10;3.80;;;2.60;;
13941;SDS011;7043;51.630;7.254;2023-06-14T15:04:36;2.97;;;2.10;;